createdAt,value
2023-02-06T00:01:40.359Z,93.73
2023-02-06T00:04:08.575Z,93.32
2023-02-06T00:06:36.657Z,93.56
2023-02-06T00:09:05.327Z,93.15
2023-02-06T00:11:33.169Z,93.46
2023-02-06T00:14:01.136Z,93.45
2023-02-06T00:16:32.283Z,93.26
2023-02-06T00:19:00.804Z,93.24
2023-02-06T00:21:29.806Z,93.17
2023-02-06T00:24:00.099Z,93.00
2023-02-06T00:26:28.966Z,93.30
2023-02-06T00:28:57.329Z,93.41
2023-02-06T00:31:25.886Z,93.26
2023-02-06T00:33:53.978Z,93.58
2023-02-06T00:36:21.750Z,93.42
2023-02-06T00:38:49.808Z,93.33
2023-02-06T00:41:17.541Z,93.40
2023-02-06T00:43:45.722Z,93.14
2023-02-06T00:46:13.430Z,93.44
2023-02-06T00:48:42.225Z,93.13
2023-02-06T00:51:10.247Z,93.55
2023-02-06T00:53:39.087Z,93.02
2023-02-06T00:56:06.914Z,93.00
2023-02-06T00:58:34.913Z,92.86
2023-02-06T01:01:04.256Z,93.18
2023-02-06T01:03:32.356Z,93.11
2023-02-06T01:06:00.115Z,93.31
2023-02-06T01:08:28.598Z,92.82
2023-02-06T01:10:56.528Z,92.72
2023-02-06T01:13:24.455Z,92.51
2023-02-06T01:15:52.318Z,92.35
2023-02-06T01:18:20.428Z,92.25
2023-02-06T01:20:48.123Z,92.24
2023-02-06T01:23:16.140Z,92.52
2023-02-06T01:25:45.426Z,92.25
2023-02-06T01:28:13.463Z,92.46
2023-02-06T01:30:41.228Z,91.84
2023-02-06T01:33:09.408Z,91.82
2023-02-06T01:35:38.023Z,91.72
2023-02-06T01:38:05.920Z,91.70
2023-02-06T01:40:33.592Z,92.10
2023-02-06T01:43:02.184Z,91.84
2023-02-06T01:45:42.908Z,91.93
2023-02-06T01:48:15.184Z,91.46
2023-02-06T01:50:46.314Z,91.28
2023-02-06T01:53:16.350Z,91.55
2023-02-06T01:55:47.728Z,91.68
2023-02-06T01:58:33.998Z,91.36
2023-02-06T02:01:03.253Z,91.74
2023-02-06T02:03:34.672Z,91.21
2023-02-06T02:06:12.317Z,91.29
2023-02-06T02:08:46.426Z,91.10
2023-02-06T02:11:28.460Z,91.20
2023-02-06T02:13:56.693Z,91.34
2023-02-06T02:17:03.323Z,91.25
2023-02-06T02:20:07.283Z,91.00
2023-02-06T02:22:43.637Z,90.86
2023-02-06T02:25:33.396Z,91.26
2023-02-06T02:28:19.068Z,91.53
2023-02-06T02:31:05.139Z,91.34
2023-02-06T02:34:21.345Z,92.01
2023-02-06T02:37:08.764Z,92.09
2023-02-06T02:39:59.037Z,91.74
2023-02-06T02:42:33.951Z,92.32
2023-02-06T02:45:16.497Z,92.28
2023-02-06T02:48:06.970Z,92.22
2023-02-06T02:50:36.523Z,91.97
2023-02-06T02:53:05.321Z,92.32
2023-02-06T02:55:33.043Z,92.08
2023-02-06T02:58:09.044Z,91.84
2023-02-06T03:00:43.362Z,92.00
2023-02-06T03:03:14.473Z,91.64
2023-02-06T03:06:17.894Z,91.84
2023-02-06T03:08:55.392Z,91.58
2023-02-06T03:11:24.177Z,91.44
2023-02-06T03:14:16.325Z,91.46
2023-02-06T03:16:50.341Z,91.29
2023-02-06T03:19:33.416Z,91.84
2023-02-06T03:22:02.608Z,91.92
2023-02-06T03:24:36.748Z,92.32
2023-02-06T03:27:11.417Z,92.34
2023-02-06T03:29:41.727Z,92.01
2023-02-06T03:32:16.793Z,92.09
2023-02-06T03:34:51.578Z,91.82
2023-02-06T03:37:20.651Z,91.86
2023-02-06T03:39:48.852Z,92.06
2023-02-06T03:42:17.694Z,92.18
2023-02-06T03:44:51.731Z,91.90
2023-02-06T03:47:21.088Z,92.57
2023-02-06T03:49:51.293Z,92.42
2023-02-06T03:52:24.535Z,92.84
2023-02-06T03:55:02.361Z,92.62
2023-02-06T03:57:32.914Z,92.97
2023-02-06T04:00:00.928Z,92.97
2023-02-06T04:02:29.018Z,93.30
2023-02-06T04:04:57.359Z,93.08
2023-02-06T04:07:28.044Z,93.05
2023-02-06T04:09:56.176Z,93.32
2023-02-06T04:12:24.653Z,93.09
2023-02-06T04:14:53.270Z,93.54
2023-02-06T04:17:40.477Z,93.19
2023-02-06T04:20:09.632Z,93.56
2023-02-06T04:22:38.284Z,93.34
2023-02-06T04:25:06.671Z,93.71
2023-02-06T04:27:34.467Z,93.39
2023-02-06T04:30:02.477Z,93.70
2023-02-06T04:32:30.195Z,93.58
2023-02-06T04:34:58.209Z,93.71
2023-02-06T04:37:25.834Z,93.46
2023-02-06T04:39:53.766Z,93.48
2023-02-06T04:42:21.381Z,93.74
2023-02-06T04:44:49.292Z,93.36
2023-02-06T04:47:16.922Z,93.54
2023-02-06T04:49:44.982Z,93.40
2023-02-06T04:52:12.643Z,93.26
2023-02-06T04:54:40.549Z,93.41
2023-02-06T04:57:08.156Z,93.28
2023-02-06T04:59:36.110Z,93.13
2023-02-06T05:02:03.732Z,92.64
2023-02-06T05:04:31.753Z,92.47
2023-02-06T05:06:59.385Z,92.65
2023-02-06T05:09:27.461Z,92.57
2023-02-06T05:11:55.148Z,92.66
2023-02-06T05:14:23.237Z,92.76
2023-02-06T05:16:50.929Z,92.76
2023-02-06T05:19:18.854Z,92.84
2023-02-06T05:21:46.506Z,92.72
2023-02-06T05:24:14.613Z,92.64
2023-02-06T05:26:42.265Z,92.60
2023-02-06T05:29:10.353Z,92.75
2023-02-06T05:31:38.206Z,92.98
2023-02-06T05:34:06.196Z,92.99
2023-02-06T05:36:33.892Z,92.92
2023-02-06T05:39:01.949Z,92.87
2023-02-06T05:41:29.587Z,92.93
2023-02-06T05:43:57.546Z,93.03
2023-02-06T05:46:25.347Z,93.29
2023-02-06T05:48:53.398Z,93.12
2023-02-06T05:51:21.056Z,93.17
2023-02-06T05:53:49.113Z,93.27
2023-02-06T05:56:16.815Z,93.69
2023-02-06T05:58:44.828Z,93.68
2023-02-06T06:01:14.244Z,93.74
2023-02-06T06:03:42.282Z,93.64
2023-02-06T06:06:09.957Z,93.83
2023-02-06T06:08:38.105Z,93.82
2023-02-06T06:11:07.301Z,93.94
2023-02-06T06:13:35.332Z,94.06
2023-02-06T06:16:03.242Z,93.96
2023-02-06T06:18:31.444Z,93.81
2023-02-06T06:20:59.301Z,93.82
2023-02-06T06:23:27.279Z,93.60
2023-02-06T06:25:54.943Z,93.67
2023-02-06T06:28:22.975Z,93.66
2023-02-06T06:30:50.729Z,93.63
2023-02-06T06:33:19.188Z,93.48
2023-02-06T06:35:46.819Z,93.39
2023-02-06T06:38:14.722Z,93.43
2023-02-06T06:40:42.515Z,93.44
2023-02-06T06:43:10.404Z,93.61
2023-02-06T06:45:38.489Z,93.00
2023-02-06T06:48:06.901Z,92.92
2023-02-06T06:50:34.753Z,92.60
2023-02-06T06:53:02.740Z,92.89
2023-02-06T06:55:30.597Z,92.45
2023-02-06T06:57:58.613Z,90.82
2023-02-06T07:00:26.592Z,88.50
2023-02-06T07:02:54.708Z,87.26
2023-02-06T07:05:23.280Z,85.77
2023-02-06T07:07:51.465Z,84.90
2023-02-06T07:10:19.765Z,84.17
2023-02-06T07:12:48.229Z,83.24
2023-02-06T07:15:15.868Z,82.14
2023-02-06T07:17:43.840Z,81.64
2023-02-06T07:20:12.181Z,80.84
2023-02-06T07:22:40.176Z,80.66
2023-02-06T07:25:08.127Z,80.57
2023-02-06T07:27:36.140Z,80.44
2023-02-06T07:30:06.402Z,79.55
2023-02-06T07:32:38.233Z,78.40
2023-02-06T07:35:07.008Z,76.92
2023-02-06T07:37:34.981Z,76.29
2023-02-06T07:40:02.834Z,75.11
2023-02-06T07:42:30.899Z,75.23
2023-02-06T07:45:05.489Z,74.73
2023-02-06T07:47:33.434Z,74.16
2023-02-06T07:50:01.117Z,74.21
2023-02-06T07:52:29.092Z,73.96
2023-02-06T07:54:56.756Z,74.20
2023-02-06T07:57:24.853Z,74.17
2023-02-06T07:59:52.638Z,73.94
2023-02-06T08:02:20.607Z,73.64
2023-02-06T08:04:48.299Z,73.14
2023-02-06T08:07:17.977Z,72.83
2023-02-06T08:09:46.917Z,71.66
2023-02-06T08:12:14.967Z,70.59
2023-02-06T08:14:45.854Z,69.15
2023-02-06T08:17:14.059Z,67.37
2023-02-06T08:19:41.867Z,65.63
2023-02-06T08:22:09.965Z,63.58
2023-02-06T08:24:37.679Z,63.00
2023-02-06T08:27:07.164Z,61.74
2023-02-06T08:29:42.440Z,60.44
2023-02-06T08:32:11.479Z,58.64
2023-02-06T08:34:40.473Z,56.70
2023-02-06T08:37:08.446Z,55.59
2023-02-06T08:39:36.129Z,53.69
2023-02-06T08:42:04.172Z,51.82
2023-02-06T08:44:32.340Z,50.38
2023-02-06T08:47:09.668Z,49.57
2023-02-06T08:49:38.273Z,47.78
2023-02-06T08:52:06.326Z,46.44
2023-02-06T08:54:36.347Z,45.44
2023-02-06T08:57:06.708Z,44.55
2023-02-06T08:59:34.989Z,43.60
2023-02-06T09:02:03.071Z,41.84
2023-02-06T09:04:35.387Z,40.92
2023-02-06T09:07:03.354Z,40.30
2023-02-06T09:09:31.142Z,39.56
2023-02-06T09:12:03.718Z,38.85
2023-02-06T09:14:32.331Z,38.58
2023-02-06T09:17:00.287Z,38.30
2023-02-06T09:19:28.240Z,37.74
2023-02-06T09:21:56.458Z,37.43
2023-02-06T09:24:24.260Z,37.35
2023-02-06T09:26:59.960Z,36.75
2023-02-06T09:29:31.638Z,36.96
2023-02-06T09:32:00.783Z,36.73
2023-02-06T09:34:28.909Z,36.05
2023-02-06T09:36:57.896Z,35.41
2023-02-06T09:39:26.280Z,35.18
2023-02-06T09:42:06.540Z,34.36
2023-02-06T09:44:41.928Z,34.20
2023-02-06T09:47:12.969Z,34.06
2023-02-06T09:49:52.466Z,34.22
2023-02-06T09:52:42.408Z,34.73
2023-02-06T09:55:19.025Z,34.67
2023-02-06T09:57:51.259Z,34.53
2023-02-06T10:00:44.949Z,33.99
2023-02-06T10:03:34.811Z,33.76
2023-02-06T10:06:27.044Z,33.25
2023-02-06T10:09:07.393Z,32.92
2023-02-06T10:11:51.877Z,32.51
2023-02-06T10:14:32.060Z,32.83
2023-02-06T10:17:11.526Z,32.95
2023-02-06T10:20:04.204Z,32.77
2023-02-06T10:22:47.077Z,32.76
2023-02-06T10:25:29.038Z,32.98
2023-02-06T10:28:22.553Z,33.00
2023-02-06T10:31:14.378Z,32.76
2023-02-06T10:33:51.159Z,33.01
2023-02-06T10:36:34.111Z,33.51
2023-02-06T10:39:18.150Z,34.62
2023-02-06T10:42:00.426Z,37.16
2023-02-06T10:44:51.072Z,38.99
2023-02-06T10:47:48.739Z,41.18
2023-02-06T10:50:23.552Z,42.93
2023-02-06T10:52:52.884Z,43.06
2023-02-06T10:55:36.560Z,44.27
2023-02-06T10:58:31.171Z,45.70
2023-02-06T11:01:00.975Z,45.76
2023-02-06T11:03:31.981Z,45.97
2023-02-06T11:06:01.671Z,46.22
2023-02-06T11:08:35.517Z,46.12
2023-02-06T11:11:24.999Z,46.23
2023-02-06T11:14:19.858Z,46.13
2023-02-06T11:16:47.580Z,44.89
2023-02-06T11:19:26.054Z,44.74
2023-02-06T11:22:12.877Z,43.55
2023-02-06T11:25:00.359Z,43.62
2023-02-06T11:27:29.075Z,43.38
2023-02-06T11:30:00.151Z,43.40
2023-02-06T11:32:52.820Z,43.30
2023-02-06T11:35:37.282Z,42.99
2023-02-06T11:38:27.884Z,43.15
2023-02-06T11:41:03.048Z,43.88
2023-02-06T11:43:49.077Z,44.29
2023-02-06T11:46:23.714Z,44.80
2023-02-06T11:48:59.544Z,45.54
2023-02-06T11:51:48.422Z,44.84
2023-02-06T11:54:28.251Z,44.61
2023-02-06T11:57:00.323Z,45.67
2023-02-06T11:59:28.732Z,46.21
2023-02-06T12:01:57.743Z,46.64
2023-02-06T12:04:40.712Z,46.60
2023-02-06T12:07:20.460Z,47.83
2023-02-06T12:09:48.146Z,48.71
2023-02-06T12:12:33.217Z,48.88
2023-02-06T12:15:29.524Z,49.19
2023-02-06T12:18:04.948Z,49.58
2023-02-06T12:20:36.661Z,50.79
2023-02-06T12:23:39.219Z,51.02
2023-02-06T12:26:15.927Z,50.93
2023-02-06T12:29:11.899Z,51.58
2023-02-06T12:31:57.753Z,52.30
2023-02-06T12:34:56.231Z,52.16
2023-02-06T12:37:39.860Z,53.00
2023-02-06T12:40:20.064Z,53.40
2023-02-06T12:43:01.817Z,53.33
2023-02-06T12:45:50.057Z,54.05
2023-02-06T12:48:40.575Z,54.24
2023-02-06T12:51:22.162Z,54.11
2023-02-06T12:53:56.303Z,54.20
2023-02-06T12:56:46.189Z,54.33
2023-02-06T12:59:57.841Z,54.69
2023-02-06T13:02:45.905Z,54.83
2023-02-06T13:05:39.467Z,54.51
2023-02-06T13:08:18.598Z,54.79
2023-02-06T13:11:00.020Z,54.66
2023-02-06T13:13:37.981Z,54.12
2023-02-06T13:16:07.069Z,54.54
2023-02-06T13:18:37.810Z,53.96
2023-02-06T13:21:37.803Z,54.14
2023-02-06T13:24:12.470Z,54.16
2023-02-06T13:27:01.600Z,54.12
2023-02-06T13:29:34.746Z,53.88
2023-02-06T13:32:20.189Z,54.01
2023-02-06T13:34:53.802Z,54.11
2023-02-06T13:37:37.981Z,53.73
2023-02-06T13:40:24.115Z,53.74
2023-02-06T13:42:57.006Z,53.80
2023-02-06T13:45:31.136Z,53.89
2023-02-06T13:48:01.485Z,54.26
2023-02-06T13:50:36.698Z,54.03
2023-02-06T13:53:22.820Z,54.65
2023-02-06T13:56:27.825Z,54.50
2023-02-06T13:58:56.522Z,54.45
2023-02-06T14:01:30.061Z,54.23
2023-02-06T14:03:59.785Z,54.62
2023-02-06T14:06:46.282Z,54.95
2023-02-06T14:09:43.083Z,55.29
2023-02-06T14:12:38.808Z,55.53
2023-02-06T14:15:17.923Z,55.42
2023-02-06T14:18:05.595Z,55.14
2023-02-06T14:21:14.461Z,55.21
2023-02-06T14:24:00.933Z,55.35
2023-02-06T14:26:47.991Z,55.52
2023-02-06T14:29:40.371Z,55.54
2023-02-06T14:32:10.961Z,56.08
2023-02-06T14:34:56.733Z,56.42
2023-02-06T14:37:50.386Z,55.58
2023-02-06T14:40:26.883Z,54.89
2023-02-06T14:42:58.273Z,55.14
2023-02-06T14:45:42.384Z,56.05
2023-02-06T14:48:28.711Z,56.71
2023-02-06T14:50:58.153Z,57.84
2023-02-06T14:53:37.990Z,58.64
2023-02-06T14:56:16.279Z,59.40
2023-02-06T14:58:46.497Z,60.24
2023-02-06T15:01:24.776Z,60.99
2023-02-06T15:04:07.786Z,61.77
2023-02-06T15:06:39.353Z,62.32
2023-02-06T15:09:08.131Z,62.89
2023-02-06T15:11:36.141Z,63.25
2023-02-06T15:14:17.363Z,63.58
2023-02-06T15:16:47.112Z,64.22
2023-02-06T15:19:24.910Z,64.77
2023-02-06T15:22:06.023Z,65.93
2023-02-06T15:24:33.805Z,66.77
2023-02-06T15:27:23.523Z,67.08
2023-02-06T15:29:52.043Z,67.54
2023-02-06T15:32:32.192Z,68.62
2023-02-06T15:35:01.530Z,68.80
2023-02-06T15:37:33.188Z,69.85
2023-02-06T15:40:18.936Z,70.49
2023-02-06T15:42:48.802Z,70.66
2023-02-06T15:45:31.095Z,71.45
2023-02-06T15:48:07.373Z,72.23
2023-02-06T15:50:35.407Z,72.76
2023-02-06T15:53:18.501Z,73.99
2023-02-06T15:55:56.569Z,74.54
2023-02-06T15:58:25.964Z,74.80
2023-02-06T16:00:56.500Z,75.92
2023-02-06T16:03:27.060Z,76.62
2023-02-06T16:05:56.546Z,77.23
2023-02-06T16:08:30.996Z,78.05
2023-02-06T16:11:05.619Z,79.08
2023-02-06T16:13:33.718Z,79.03
2023-02-06T16:16:11.552Z,79.43
2023-02-06T16:18:40.565Z,80.00
2023-02-06T16:21:13.125Z,80.55
2023-02-06T16:24:04.553Z,80.61
2023-02-06T16:26:48.364Z,80.86
2023-02-06T16:29:26.622Z,81.64
2023-02-06T16:32:11.754Z,82.06
2023-02-06T16:34:42.285Z,82.79
2023-02-06T16:37:15.379Z,83.24
2023-02-06T16:39:44.638Z,82.97
2023-02-06T16:42:15.006Z,83.57
2023-02-06T16:44:46.506Z,84.14
2023-02-06T16:47:18.815Z,84.61
2023-02-06T16:49:52.034Z,84.99
2023-02-06T16:52:26.539Z,85.16
2023-02-06T16:54:56.237Z,85.33
2023-02-06T16:57:30.972Z,85.50
2023-02-06T16:59:59.336Z,85.78
2023-02-06T17:02:28.052Z,85.86
2023-02-06T17:04:56.235Z,86.41
2023-02-06T17:07:27.338Z,86.55
2023-02-06T17:09:57.555Z,86.69
2023-02-06T17:12:25.770Z,87.13
2023-02-06T17:14:54.291Z,87.73
2023-02-06T17:17:23.162Z,87.90
2023-02-06T17:19:52.597Z,88.25
2023-02-06T17:22:20.896Z,88.31
2023-02-06T17:24:49.109Z,88.51
2023-02-06T17:27:20.959Z,88.91
2023-02-06T17:29:50.462Z,89.29
2023-02-06T17:32:22.311Z,89.63
2023-02-06T17:34:54.146Z,90.04
2023-02-06T17:37:22.026Z,90.46
2023-02-06T17:39:51.834Z,90.70
2023-02-06T17:42:21.932Z,90.96
2023-02-06T17:44:50.574Z,91.17
2023-02-06T17:47:18.480Z,91.50
2023-02-06T17:49:47.056Z,91.83
2023-02-06T17:52:15.195Z,92.23
2023-02-06T17:54:44.566Z,92.78
2023-02-06T17:57:13.703Z,93.11
2023-02-06T17:59:41.709Z,93.64
2023-02-06T18:02:17.045Z,93.97
2023-02-06T18:04:48.750Z,94.33
2023-02-06T18:07:16.463Z,94.31
2023-02-06T18:09:44.478Z,94.53
2023-02-06T18:12:12.279Z,95.02
2023-02-06T18:14:40.650Z,95.24
2023-02-06T18:17:09.093Z,95.59
2023-02-06T18:19:42.674Z,95.79
2023-02-06T18:22:18.635Z,95.95
2023-02-06T18:24:47.912Z,96.48
2023-02-06T18:27:16.544Z,96.24
2023-02-06T18:29:50.107Z,96.40
2023-02-06T18:32:19.031Z,96.42
2023-02-06T18:34:47.470Z,96.71
2023-02-06T18:37:15.402Z,96.61
2023-02-06T18:39:43.583Z,96.80
2023-02-06T18:42:30.798Z,96.88
2023-02-06T18:44:58.944Z,97.11
2023-02-06T18:47:26.678Z,97.18
2023-02-06T18:49:54.763Z,97.26
2023-02-06T18:52:22.612Z,97.40
2023-02-06T18:54:50.768Z,97.63
2023-02-06T18:57:18.462Z,97.77
2023-02-06T18:59:46.395Z,97.85
2023-02-06T19:02:14.436Z,97.96
2023-02-06T19:04:42.603Z,98.09
2023-02-06T19:07:11.733Z,98.33
2023-02-06T19:09:40.127Z,98.36
2023-02-06T19:12:08.066Z,98.37
2023-02-06T19:14:36.126Z,98.16
2023-02-06T19:17:03.844Z,98.53
2023-02-06T19:19:31.904Z,98.38
2023-02-06T19:21:59.581Z,98.28
2023-02-06T19:24:28.332Z,98.25
2023-02-06T19:26:58.450Z,98.40
2023-02-06T19:29:35.069Z,98.32
2023-02-06T19:32:06.766Z,98.30
2023-02-06T19:34:36.548Z,98.27
2023-02-06T19:37:09.416Z,98.22
2023-02-06T19:39:40.350Z,98.15
2023-02-06T19:42:10.082Z,97.94
2023-02-06T19:44:38.283Z,98.11
2023-02-06T19:47:05.990Z,97.85
2023-02-06T19:49:34.138Z,97.83
2023-02-06T19:52:02.016Z,97.55
2023-02-06T19:54:30.164Z,97.66
2023-02-06T19:56:58.539Z,97.59
2023-02-06T19:59:28.628Z,97.73
2023-02-06T20:02:01.327Z,97.82
2023-02-06T20:04:34.221Z,97.67
2023-02-06T20:07:02.664Z,98.06
2023-02-06T20:09:31.002Z,98.04
2023-02-06T20:11:59.258Z,98.19
2023-02-06T20:14:27.999Z,98.25
2023-02-06T20:16:56.014Z,98.29
2023-02-06T20:19:27.890Z,98.47
2023-02-06T20:21:59.058Z,98.50
2023-02-06T20:24:30.501Z,98.55
2023-02-06T20:27:01.485Z,98.50
2023-02-06T20:29:35.005Z,98.47
2023-02-06T20:32:04.620Z,98.48
2023-02-06T20:34:33.206Z,98.37
2023-02-06T20:37:01.421Z,98.52
2023-02-06T20:39:31.072Z,98.05
2023-02-06T20:41:59.379Z,97.93
2023-02-06T20:44:27.529Z,97.99
2023-02-06T20:46:55.483Z,98.15
2023-02-06T20:49:26.224Z,98.18
2023-02-06T20:51:54.770Z,97.96
2023-02-06T20:54:23.351Z,98.16
2023-02-06T20:56:51.493Z,98.06
2023-02-06T20:59:20.545Z,98.01
2023-02-06T21:01:48.671Z,98.10
2023-02-06T21:04:18.380Z,98.19
2023-02-06T21:06:48.564Z,98.22
2023-02-06T21:09:17.986Z,97.97
2023-02-06T21:11:49.055Z,97.86
2023-02-06T21:14:18.322Z,97.70
2023-02-06T21:16:46.088Z,97.42
2023-02-06T21:19:16.981Z,97.14
2023-02-06T21:21:46.347Z,97.08
2023-02-06T21:24:16.442Z,96.49
2023-02-06T21:26:44.677Z,96.24
2023-02-06T21:29:14.575Z,96.09
2023-02-06T21:31:42.473Z,95.92
2023-02-06T21:34:20.057Z,95.77
2023-02-06T21:36:48.494Z,95.74
2023-02-06T21:39:19.382Z,95.72
2023-02-06T21:41:51.748Z,95.58
2023-02-06T21:44:24.466Z,95.82
2023-02-06T21:46:53.180Z,95.44
2023-02-06T21:49:21.210Z,95.54
2023-02-06T21:51:50.308Z,95.53
2023-02-06T21:54:18.706Z,95.52
2023-02-06T21:56:46.517Z,95.65
2023-02-06T21:59:14.468Z,95.83
2023-02-06T22:01:42.392Z,95.63
2023-02-06T22:04:11.766Z,95.70
2023-02-06T22:06:40.107Z,95.84
2023-02-06T22:09:11.458Z,95.79
2023-02-06T22:11:40.393Z,95.78
2023-02-06T22:14:14.135Z,95.94
2023-02-06T22:16:42.221Z,95.79
2023-02-06T22:19:11.313Z,96.16
2023-02-06T22:21:39.337Z,96.06
2023-02-06T22:24:10.490Z,96.11
2023-02-06T22:26:39.530Z,95.75
2023-02-06T22:29:10.682Z,95.43
2023-02-06T22:31:40.851Z,95.74
2023-02-06T22:34:13.816Z,95.65
2023-02-06T22:36:41.954Z,95.78
2023-02-06T22:39:12.831Z,95.58
2023-02-06T22:41:45.580Z,95.34
2023-02-06T22:44:16.737Z,94.97
2023-02-06T22:46:47.103Z,94.66
2023-02-06T22:49:15.492Z,94.37
2023-02-06T22:51:43.619Z,94.32
2023-02-06T22:54:13.051Z,93.74
2023-02-06T22:56:42.462Z,93.58
2023-02-06T22:59:13.746Z,93.21
2023-02-06T23:01:42.547Z,93.05
2023-02-06T23:04:16.330Z,92.92
2023-02-06T23:06:45.102Z,92.78
2023-02-06T23:09:19.077Z,92.09
2023-02-06T23:11:47.662Z,91.54
2023-02-06T23:14:16.806Z,91.40
2023-02-06T23:16:44.556Z,91.10
2023-02-06T23:19:14.373Z,90.94
2023-02-06T23:21:43.812Z,90.68
2023-02-06T23:24:12.335Z,90.56
2023-02-06T23:26:42.891Z,90.41
2023-02-06T23:29:15.805Z,90.40
2023-02-06T23:31:44.529Z,90.46
2023-02-06T23:34:13.345Z,90.13
2023-02-06T23:36:41.263Z,90.08
2023-02-06T23:39:09.254Z,90.20
2023-02-06T23:41:36.895Z,89.88
2023-02-06T23:44:07.469Z,89.92
2023-02-06T23:46:37.312Z,90.09
2023-02-06T23:49:06.480Z,90.55
2023-02-06T23:51:35.141Z,89.90
2023-02-06T23:54:04.111Z,89.86
2023-02-06T23:56:32.546Z,90.12
2023-02-06T23:59:01.836Z,90.26
